Time;durP1;ratioP1;P1;durP2;ratioP2;P2;SDS_P1;SDS_P2;PMS_P1;PMS_P2;Temp;Humidity;BMP_temperature;BMP_pressure;BME280_temperature;BME280_humidity;BME280_pressure;Samples;Min_cycle;Max_cycle;Signal;HPM_P1;HPM_P2
2022/02/07 00:00:14;;;;;;;49.95;45.72;;;;;;;;;;4955398;28;20478;-79
2022/02/07 00:03:05;;;;;;;51.30;46.40;;;;;;;;;;4956790;29;20478;-79
2022/02/07 00:05:31;;;;;;;52.78;47.38;;;;;;;;;;4981183;23;20499;-84
2022/02/07 00:07:57;;;;;;;48.65;44.80;;;;;;;;;;4985810;28;20033;-82
2022/02/07 00:10:23;;;;;;;51.90;47.13;;;;;;;;;;4992261;28;20039;-83
2022/02/07 00:12:48;;;;;;;51.87;46.43;;;;;;;;;;5002416;28;20029;-83
2022/02/07 00:15:14;;;;;;;51.27;46.77;;;;;;;;;;4990460;28;20390;-83
2022/02/07 00:17:39;;;;;;;50.27;45.87;;;;;;;;;;5000447;28;20478;-83
2022/02/07 00:20:09;;;;;;;48.90;44.73;;;;;;;;;;4981362;28;20265;-82
2022/02/07 00:22:35;;;;;;;51.53;46.45;;;;;;;;;;4996264;28;20018;-84
2022/02/07 00:25:00;;;;;;;50.60;45.70;;;;;;;;;;4983486;28;20346;-83
2022/02/07 00:27:25;;;;;;;51.27;46.27;;;;;;;;;;4979081;28;20023;-83
2022/02/07 00:29:50;;;;;;;51.73;46.53;;;;;;;;;;4979003;28;20078;-82
2022/02/07 00:32:15;;;;;;;50.40;45.90;;;;;;;;;;4982935;28;20025;-82
2022/02/07 00:34:41;;;;;;;51.37;46.20;;;;;;;;;;4982223;28;20392;-82
2022/02/07 00:37:06;;;;;;;50.97;45.90;;;;;;;;;;4998034;28;20027;-82
2022/02/07 00:39:40;;;;;;;51.43;46.10;;;;;;;;;;4981659;28;20026;-82
2022/02/07 00:42:08;;;;;;;51.05;46.22;;;;;;;;;;4997777;28;20401;-82
2022/02/07 00:44:33;;;;;;;50.25;45.65;;;;;;;;;;4998854;28;20035;-83
2022/02/07 00:47:05;;;;;;;52.35;46.92;;;;;;;;;;4999994;28;20099;-82
2022/02/07 00:49:30;;;;;;;49.95;45.58;;;;;;;;;;4987174;28;20054;-83
2022/02/07 00:51:55;;;;;;;50.80;46.10;;;;;;;;;;5006309;28;20027;-83
2022/02/07 00:54:21;;;;;;;50.50;45.97;;;;;;;;;;5012336;28;20061;-82
2022/02/07 00:56:46;;;;;;;51.47;46.67;;;;;;;;;;4992477;28;20434;-82
2022/02/07 00:59:11;;;;;;;50.07;45.80;;;;;;;;;;5006103;28;20514;-83
2022/02/07 01:01:36;;;;;;;52.67;47.57;;;;;;;;;;4989732;28;20026;-82
2022/02/07 01:04:02;;;;;;;50.87;46.00;;;;;;;;;;4997612;28;20049;-82
2022/02/07 01:06:27;;;;;;;51.60;46.77;;;;;;;;;;4997201;28;20035;-82
2022/02/07 01:09:08;;;;;;;49.07;45.13;;;;;;;;;;4980807;28;20034;-82
2022/02/07 01:14:33;;;;;;;51.33;46.17;;;;;;;;;;4979192;28;20524;-82
2022/02/07 01:17:57;;;;;;;50.35;45.92;;;;;;;;;;4976330;28;20027;-82
2022/02/07 01:47:37;;;;;;;51.50;46.65;;;;;;;;;;4986436;28;20050;-84
2022/02/07 01:50:30;;;;;;;51.45;46.08;;;;;;;;;;4987408;28;20058;-83
2022/02/07 01:53:08;;;;;;;51.90;46.80;;;;;;;;;;4982817;28;20043;-83
2022/02/07 01:55:42;;;;;;;51.15;46.25;;;;;;;;;;4982234;28;20042;-83
2022/02/07 01:58:07;;;;;;;50.45;46.00;;;;;;;;;;4997186;28;20109;-83
2022/02/07 02:00:33;;;;;;;51.80;46.55;;;;;;;;;;4999721;28;20034;-83
2022/02/07 02:02:59;;;;;;;52.03;46.88;;;;;;;;;;4979989;28;20010;-83
2022/02/07 02:05:24;;;;;;;50.40;45.87;;;;;;;;;;5014375;28;20070;-83
2022/02/07 02:07:50;;;;;;;52.70;47.07;;;;;;;;;;5012753;28;20043;-82
2022/02/07 02:10:16;;;;;;;51.13;46.28;;;;;;;;;;5004457;28;20047;-84
2022/02/07 02:12:49;;;;;;;55.70;46.92;;;;;;;;;;5011172;28;20038;-83
2022/02/07 02:15:44;;;;;;;51.42;46.15;;;;;;;;;;5013590;28;20029;-83
2022/02/07 02:18:54;;;;;;;50.88;46.00;;;;;;;;;;5003513;28;20079;-83
2022/02/07 02:35:19;;;;;;;51.58;46.35;;;;;;;;;;4996399;28;20038;-84
2022/02/07 02:45:32;;;;;;;50.92;46.00;;;;;;;;;;4990292;28;20038;-83
2022/02/07 02:48:00;;;;;;;51.58;46.47;;;;;;;;;;4995675;28;20058;-83
2022/02/07 02:50:31;;;;;;;50.25;45.85;;;;;;;;;;4980975;28;20017;-83
2022/02/07 02:52:57;;;;;;;51.28;46.25;;;;;;;;;;4967639;28;20078;-83
2022/02/07 02:55:22;;;;;;;51.17;46.55;;;;;;;;;;4998063;28;20029;-83
2022/02/07 02:57:48;;;;;;;51.17;46.20;;;;;;;;;;4989631;28;20406;-83
2022/02/07 03:00:13;;;;;;;50.40;45.80;;;;;;;;;;4993506;28;20019;-83
2022/02/07 03:02:38;;;;;;;52.57;47.20;;;;;;;;;;4982747;28;20058;-83
2022/02/07 03:05:07;;;;;;;49.17;44.93;;;;;;;;;;4980632;28;20424;-83
2022/02/07 03:07:33;;;;;;;51.47;46.08;;;;;;;;;;4977466;28;20018;-83
2022/02/07 03:10:00;;;;;;;51.25;46.33;;;;;;;;;;4995998;28;20030;-82
2022/02/07 03:12:27;;;;;;;50.10;45.53;;;;;;;;;;4978796;28;20022;-82
2022/02/07 03:14:53;;;;;;;51.00;45.78;;;;;;;;;;4980262;28;20025;-82
2022/02/07 03:17:18;;;;;;;50.35;45.60;;;;;;;;;;4994371;28;20030;-82
2022/02/07 03:19:44;;;;;;;50.40;45.90;;;;;;;;;;5005967;28;20027;-82
2022/02/07 03:22:09;;;;;;;49.27;44.87;;;;;;;;;;5006509;28;20031;-82
2022/02/07 03:24:34;;;;;;;50.03;45.23;;;;;;;;;;4991251;28;20413;-82
2022/02/07 03:27:00;;;;;;;50.23;45.80;;;;;;;;;;4982943;28;20062;-82
2022/02/07 03:29:25;;;;;;;49.90;45.47;;;;;;;;;;4983774;28;20286;-83
2022/02/07 03:31:51;;;;;;;50.40;45.80;;;;;;;;;;5007468;28;20027;-81
2022/02/07 03:34:16;;;;;;;50.00;45.63;;;;;;;;;;4987426;28;20574;-82
2022/02/07 03:36:42;;;;;;;51.57;46.67;;;;;;;;;;4993644;28;20555;-83
2022/02/07 03:39:07;;;;;;;;;;;;;;;;;;4993235;28;20022;-83
2022/02/07 03:41:33;;;;;;;49.65;45.03;;;;;;;;;;4994940;28;19906;-82
2022/02/07 03:43:58;;;;;;;50.10;45.53;;;;;;;;;;4999099;28;20019;-82
2022/02/07 03:46:23;;;;;;;52.87;47.43;;;;;;;;;;4993635;28;20022;-83
2022/02/07 03:48:48;;;;;;;50.27;45.77;;;;;;;;;;4974637;28;20049;-83
2022/02/07 03:51:14;;;;;;;49.43;44.80;;;;;;;;;;4976796;28;20173;-83
2022/02/07 03:53:39;;;;;;;49.73;45.37;;;;;;;;;;4977152;28;20030;-82
2022/02/07 03:56:05;;;;;;;51.17;46.40;;;;;;;;;;4977981;28;20023;-83
2022/02/07 03:58:30;;;;;;;49.80;45.60;;;;;;;;;;4992654;28;20275;-82
2022/02/07 04:00:56;;;;;;;50.83;45.87;;;;;;;;;;4987381;28;20057;-82
2022/02/07 04:03:25;;;;;;;50.15;45.13;;;;;;;;;;4977037;28;20090;-85
2022/02/07 04:06:14;;;;;;;51.40;46.67;;;;;;;;;;4977015;28;20122;-83
2022/02/07 04:08:42;;;;;;;50.75;46.28;;;;;;;;;;4973251;28;20015;-82
2022/02/07 04:13:37;;;;;;;51.83;46.78;;;;;;;;;;4981309;28;20037;-82
2022/02/07 04:16:04;;;;;;;53.15;47.83;;;;;;;;;;4995242;28;20088;-83
2022/02/07 04:18:46;;;;;;;50.38;45.78;;;;;;;;;;4998366;28;20086;-82
2022/02/07 04:21:11;;;;;;;48.70;44.67;;;;;;;;;;4986407;28;20270;-84
2022/02/07 04:23:37;;;;;;;50.10;45.60;;;;;;;;;;4980216;28;20027;-81
2022/02/07 04:26:02;;;;;;;51.43;46.53;;;;;;;;;;4997833;28;20022;-83
2022/02/07 04:28:27;;;;;;;51.10;46.30;;;;;;;;;;4976945;28;20054;-83
2022/02/07 04:30:52;;;;;;;50.10;45.60;;;;;;;;;;4972847;28;20015;-83
2022/02/07 04:33:17;;;;;;;50.27;45.73;;;;;;;;;;4978982;28;20023;-82
2022/02/07 04:35:43;;;;;;;51.28;46.28;;;;;;;;;;4977170;28;20451;-82
2022/02/07 04:38:08;;;;;;;49.87;45.57;;;;;;;;;;4990662;28;20018;-82
2022/02/07 04:40:33;;;;;;;49.77;45.33;;;;;;;;;;4969556;28;20034;-82
2022/02/07 04:42:58;;;;;;;49.73;45.33;;;;;;;;;;4995510;28;20030;-82
2022/02/07 04:45:44;;;;;;;50.23;45.70;;;;;;;;;;4980017;28;20098;-83
2022/02/07 04:48:35;;;;;;;50.97;46.17;;;;;;;;;;4971320;28;20035;-82
2022/02/07 04:53:50;;;;;;;52.63;47.63;;;;;;;;;;4979290;28;20043;-82
2022/02/07 04:56:58;;;;;;;51.72;46.83;;;;;;;;;;4977456;28;20257;-82
2022/02/07 04:59:05;;;;;;;49.55;45.47;;;;;;;;;;4976505;28;20026;-82
2022/02/07 05:01:44;;;;;;;50.20;45.40;;;;;;;;;;4984997;28;20074;-84
2022/02/07 05:04:20;;;;;;;50.30;45.63;;;;;;;;;;4995160;28;20022;-82
2022/02/07 05:14:59;;;;;;;50.33;45.80;;;;;;;;;;4978238;28;20501;-83
2022/02/07 05:17:25;;;;;;;50.40;45.88;;;;;;;;;;4996120;28;20054;-83
2022/02/07 05:19:50;;;;;;;49.88;45.58;;;;;;;;;;4988610;28;20045;-83
2022/02/07 05:22:16;;;;;;;50.10;45.70;;;;;;;;;;4995927;28;20527;-82
2022/02/07 05:24:41;;;;;;;50.47;46.05;;;;;;;;;;4987038;28;20042;-82
2022/02/07 05:27:06;;;;;;;50.40;45.50;;;;;;;;;;5007646;28;20027;-82
2022/02/07 05:29:31;;;;;;;49.63;45.05;;;;;;;;;;5000562;28;20031;-82
2022/02/07 05:31:57;;;;;;;51.73;46.90;;;;;;;;;;4998215;28;20029;-83
2022/02/07 05:34:22;;;;;;;51.60;46.85;;;;;;;;;;4996878;28;20102;-84
2022/02/07 05:36:49;;;;;;;53.03;47.30;;;;;;;;;;4989092;28;20030;-82
2022/02/07 05:39:16;;;;;;;51.65;46.70;;;;;;;;;;4994063;28;20023;-82
2022/02/07 05:41:43;;;;;;;51.80;46.63;;;;;;;;;;4983942;28;20026;-83
2022/02/07 05:44:08;;;;;;;52.03;46.97;;;;;;;;;;5001495;28;20110;-83
2022/02/07 05:46:34;;;;;;;53.83;48.10;;;;;;;;;;4980771;28;20050;-84
2022/02/07 05:49:02;;;;;;;50.40;45.57;;;;;;;;;;4995860;28;20027;-84
2022/02/07 05:51:27;;;;;;;50.45;45.72;;;;;;;;;;5002045;28;20096;-84
2022/02/07 05:53:52;;;;;;;51.70;46.10;;;;;;;;;;4985055;28;20050;-84
2022/02/07 05:56:17;;;;;;;52.60;47.10;;;;;;;;;;4990210;28;20038;-83
2022/02/07 05:58:42;;;;;;;50.57;45.57;;;;;;;;;;4988699;28;20553;-83
2022/02/07 06:01:07;;;;;;;52.20;47.27;;;;;;;;;;4991873;28;20042;-85
2022/02/07 06:03:33;;;;;;;57.23;46.50;;;;;;;;;;4991614;28;20031;-83
2022/02/07 06:05:58;;;;;;;50.47;45.63;;;;;;;;;;5048576;23;20189;-87
2022/02/07 06:08:24;;;;;;;50.23;45.67;;;;;;;;;;4990860;28;20079;-89
2022/02/07 06:10:49;;;;;;;52.65;47.50;;;;;;;;;;5000352;28;20015;-92
2022/02/07 06:13:17;;;;;;;53.60;47.77;;;;;;;;;;4999808;28;20049;-92
2022/02/07 06:15:42;;;;;;;51.45;46.53;;;;;;;;;;5000449;28;20027;-91
2022/02/07 06:18:18;;;;;;;52.07;47.23;;;;;;;;;;4996388;28;20035;-90
2022/02/07 06:20:44;;;;;;;52.22;47.33;;;;;;;;;;4982930;28;20031;-88
2022/02/07 06:23:09;;;;;;;51.03;46.40;;;;;;;;;;4990090;28;20031;-88
2022/02/07 06:25:34;;;;;;;51.50;46.13;;;;;;;;;;4986918;28;20023;-88
2022/02/07 06:28:00;;;;;;;50.23;45.40;;;;;;;;;;5003573;28;20047;-88
2022/02/07 06:30:25;;;;;;;56.83;47.77;;;;;;;;;;5004099;28;20054;-92
2022/02/07 06:32:50;;;;;;;51.73;46.27;;;;;;;;;;5013295;28;20014;-88
2022/02/07 06:35:15;;;;;;;50.50;46.00;;;;;;;;;;5000152;28;20027;-89
2022/02/07 06:37:41;;;;;;;50.77;46.07;;;;;;;;;;5005000;28;20023;-89
2022/02/07 06:40:07;;;;;;;53.43;47.60;;;;;;;;;;5015682;28;20030;-90
2022/02/07 06:42:32;;;;;;;64.93;50.00;;;;;;;;;;5014785;28;20010;-91
2022/02/07 06:44:57;;;;;;;52.23;47.30;;;;;;;;;;4999778;28;20015;-91
2022/02/07 06:47:23;;;;;;;54.43;48.73;;;;;;;;;;4996869;28;20018;-91
2022/02/07 06:49:48;;;;;;;58.80;49.43;;;;;;;;;;4971872;23;20047;-75
2022/02/07 06:52:13;;;;;;;54.33;48.37;;;;;;;;;;4962711;28;20027;-76
2022/02/07 06:54:38;;;;;;;57.53;48.67;;;;;;;;;;4963124;28;20574;-78
2022/02/07 06:57:04;;;;;;;56.03;49.63;;;;;;;;;;4984479;28;20014;-76
2022/02/07 06:59:33;;;;;;;52.10;46.53;;;;;;;;;;4972733;28;20113;-76
2022/02/07 07:01:59;;;;;;;54.97;48.78;;;;;;;;;;4989406;28;20081;-77
2022/02/07 07:04:27;;;;;;;55.10;49.10;;;;;;;;;;4984083;28;20023;-76
2022/02/07 07:06:52;;;;;;;60.65;50.63;;;;;;;;;;4967152;28;20027;-77
2022/02/07 07:09:18;;;;;;;54.20;48.03;;;;;;;;;;4962056;28;20041;-77
2022/02/07 07:11:43;;;;;;;52.70;47.17;;;;;;;;;;4980669;28;20027;-79
2022/02/07 07:14:29;;;;;;;55.23;49.10;;;;;;;;;;4968220;28;20073;-79
2022/02/07 07:16:55;;;;;;;56.83;50.15;;;;;;;;;;4984943;28;20065;-80
2022/02/07 07:19:21;;;;;;;55.65;48.60;;;;;;;;;;4962276;28;20026;-81
2022/02/07 07:21:46;;;;;;;53.40;48.05;;;;;;;;;;4961075;28;20055;-83
2022/02/07 07:24:12;;;;;;;53.13;47.63;;;;;;;;;;4956471;28;20166;-83
2022/02/07 07:26:38;;;;;;;56.30;48.10;;;;;;;;;;4972322;28;20264;-82
2022/02/07 07:29:09;;;;;;;54.53;48.67;;;;;;;;;;4960375;28;20039;-82
2022/02/07 07:31:41;;;;;;;54.80;48.85;;;;;;;;;;4980323;28;20497;-79
2022/02/07 07:34:07;;;;;;;53.30;47.30;;;;;;;;;;4984454;28;20022;-83
2022/02/07 07:36:32;;;;;;;62.57;51.43;;;;;;;;;;4965220;28;20015;-80
2022/02/07 07:38:57;;;;;;;56.07;48.53;;;;;;;;;;4961996;28;20607;-78
2022/02/07 07:41:23;;;;;;;58.10;50.57;;;;;;;;;;4980186;28;20106;-78
2022/02/07 07:43:50;;;;;;;53.50;48.00;;;;;;;;;;4962822;28;20019;-77
2022/02/07 07:46:18;;;;;;;57.05;49.30;;;;;;;;;;4979391;28;20362;-77
2022/02/07 07:48:49;;;;;;;54.75;49.03;;;;;;;;;;4961620;28;20417;-78
2022/02/07 07:51:33;;;;;;;54.60;48.90;;;;;;;;;;4963274;28;20082;-78
2022/02/07 07:54:21;;;;;;;54.58;49.25;;;;;;;;;;4970266;28;20082;-80
2022/02/07 08:02:16;;;;;;;56.20;49.97;;;;;;;;;;4958513;29;20030;-79
2022/02/07 08:04:44;;;;;;;55.38;49.08;;;;;;;;;;4966710;29;20019;-79
2022/02/07 08:12:11;;;;;;;58.95;49.45;;;;;;;;;;4972078;28;20023;-76
2022/02/07 08:14:37;;;;;;;57.20;50.97;;;;;;;;;;4976659;28;20113;-81
2022/02/07 08:17:03;;;;;;;60.65;51.22;;;;;;;;;;4994982;28;20015;-77
2022/02/07 08:19:29;;;;;;;59.40;50.15;;;;;;;;;;4989679;28;20042;-79
2022/02/07 08:21:55;;;;;;;57.15;50.42;;;;;;;;;;4973878;28;20023;-79
2022/02/07 08:24:21;;;;;;;63.10;50.97;;;;;;;;;;4990183;28;20026;-77
2022/02/07 08:26:47;;;;;;;58.03;51.90;;;;;;;;;;4986191;28;20508;-80
2022/02/07 08:29:12;;;;;;;65.03;52.35;;;;;;;;;;4963378;28;20077;-81
2022/02/07 08:31:37;;;;;;;62.13;50.57;;;;;;;;;;4964597;28;20019;-78
2022/02/07 08:34:02;;;;;;;56.23;50.03;;;;;;;;;;4974713;28;20022;-81
2022/02/07 08:36:28;;;;;;;57.60;51.20;;;;;;;;;;4974901;28;20027;-81
2022/02/07 08:38:53;;;;;;;62.17;51.07;;;;;;;;;;4968865;28;20103;-81
2022/02/07 08:41:18;;;;;;;58.43;52.17;;;;;;;;;;4958711;28;20027;-82
2022/02/07 08:43:44;;;;;;;58.50;52.27;;;;;;;;;;4957761;28;20024;-83
2022/02/07 08:46:09;;;;;;;62.53;52.73;;;;;;;;;;4958747;29;20027;-84
2022/02/07 08:48:34;;;;;;;58.43;52.00;;;;;;;;;;4954756;28;20028;-82
2022/02/07 08:51:00;;;;;;;63.13;52.80;;;;;;;;;;4958266;28;20011;-82
2022/02/07 08:53:31;;;;;;;63.10;52.77;;;;;;;;;;4957885;29;20456;-81
2022/02/07 08:55:56;;;;;;;58.90;52.50;;;;;;;;;;4959208;29;20805;-84
2022/02/07 08:58:24;;;;;;;58.83;52.07;;;;;;;;;;4955964;28;20023;-82
2022/02/07 09:03:41;;;;;;;67.47;53.60;;;;;;;;;;4973623;28;20390;-80
2022/02/07 09:11:17;;;;;;;62.80;53.13;;;;;;;;;;4972430;28;20034;-80
2022/02/07 09:13:44;;;;;;;59.50;51.63;;;;;;;;;;4989939;28;20035;-79
2022/02/07 09:18:37;;;;;;;59.38;50.67;;;;;;;;;;4969553;28;20023;-80
2022/02/07 09:21:05;;;;;;;64.13;53.38;;;;;;;;;;4964992;29;20151;-78
2022/02/07 09:23:31;;;;;;;66.88;53.22;;;;;;;;;;4988146;28;20114;-79
2022/02/07 09:25:56;;;;;;;74.23;53.20;;;;;;;;;;4978884;28;20070;-79
2022/02/07 09:28:21;;;;;;;61.70;51.33;;;;;;;;;;4965062;28;20117;-78
2022/02/07 09:30:47;;;;;;;59.07;50.57;;;;;;;;;;4961940;28;20027;-80
2022/02/07 09:33:12;;;;;;;58.23;50.63;;;;;;;;;;4962431;28;20019;-79
2022/02/07 09:35:37;;;;;;;64.60;52.47;;;;;;;;;;4960602;28;20046;-79
2022/02/07 09:38:03;;;;;;;60.73;52.23;;;;;;;;;;4958380;28;20020;-79
2022/02/07 09:40:28;;;;;;;62.83;52.40;;;;;;;;;;4958431;28;20401;-78
2022/02/07 09:42:58;;;;;;;64.53;52.43;;;;;;;;;;4959658;29;20055;-79
2022/02/07 09:45:32;;;;;;;59.10;51.28;;;;;;;;;;4959165;29;20026;-79
2022/02/07 09:48:05;;;;;;;59.50;52.58;;;;;;;;;;4954267;28;20035;-79
2022/02/07 09:50:30;;;;;;;58.78;50.92;;;;;;;;;;4973011;28;20469;-79
2022/02/07 09:52:55;;;;;;;62.73;51.07;;;;;;;;;;4956937;28;20030;-80
2022/02/07 09:55:21;;;;;;;59.77;51.03;;;;;;;;;;4957437;28;20099;-78
2022/02/07 09:57:51;;;;;;;57.07;50.20;;;;;;;;;;4955650;28;20103;-79
2022/02/07 10:00:19;;;;;;;56.80;50.83;;;;;;;;;;4957423;28;20027;-81
2022/02/07 10:02:50;;;;;;;61.45;52.08;;;;;;;;;;4958447;28;20481;-78
2022/02/07 10:05:27;;;;;;;55.08;49.20;;;;;;;;;;4959649;29;20031;-78
2022/02/07 10:08:49;;;;;;;55.25;49.78;;;;;;;;;;4957649;29;20031;-79
2022/02/07 10:10:55;;;;;;;59.10;50.03;;;;;;;;;;4955382;28;20015;-78
2022/02/07 10:13:37;;;;;;;58.63;50.15;;;;;;;;;;4964384;29;20016;-79
2022/02/07 10:16:23;;;;;;;56.67;49.65;;;;;;;;;;4965963;29;20087;-79
2022/02/07 10:21:45;;;;;;;59.33;50.30;;;;;;;;;;4966631;28;20034;-79
2022/02/07 10:45:52;;;;;;;57.40;51.28;;;;;;;;;;4964465;28;20016;-77
2022/02/07 10:48:33;;;;;;;61.85;52.45;;;;;;;;;;4957720;28;20038;-80
2022/02/07 10:51:05;;;;;;;60.78;49.53;;;;;;;;;;4975743;28;20078;-79
2022/02/07 10:53:33;;;;;;;62.38;50.38;;;;;;;;;;4959322;28;20027;-79
2022/02/07 10:55:58;;;;;;;61.13;50.10;;;;;;;;;;4975897;28;20440;-77
2022/02/07 10:58:23;;;;;;;66.53;50.63;;;;;;;;;;4960854;28;20019;-78
2022/02/07 11:00:56;;;;;;;66.63;50.57;;;;;;;;;;4975626;28;20051;-77
2022/02/07 11:03:23;;;;;;;56.47;50.42;;;;;;;;;;4958600;29;20024;-78
2022/02/07 11:05:52;;;;;;;67.07;50.65;;;;;;;;;;4970067;28;20034;-79
2022/02/07 11:08:28;;;;;;;59.88;51.22;;;;;;;;;;4957462;28;20031;-80
2022/02/07 11:11:13;;;;;;;62.65;50.28;;;;;;;;;;4958720;29;20064;-79
2022/02/07 11:13:59;;;;;;;56.25;50.35;;;;;;;;;;4939723;29;20024;-80
2022/02/07 11:19:24;;;;;;;54.72;48.75;;;;;;;;;;4955476;29;20366;-78
2022/02/07 11:22:28;;;;;;;55.70;49.85;;;;;;;;;;4959092;29;20066;-80
2022/02/07 11:25:19;;;;;;;60.92;50.53;;;;;;;;;;4957319;29;20046;-78
2022/02/07 11:27:57;;;;;;;56.33;50.40;;;;;;;;;;4955889;29;20023;-78
2022/02/07 11:30:34;;;;;;;57.65;49.83;;;;;;;;;;4957224;29;20019;-79
2022/02/07 11:32:59;;;;;;;70.28;54.05;;;;;;;;;;4974141;28;20362;-77
2022/02/07 11:35:32;;;;;;;59.13;49.97;;;;;;;;;;4957855;29;20030;-78
2022/02/07 11:38:06;;;;;;;56.67;50.35;;;;;;;;;;4954901;29;20477;-77
2022/02/07 11:40:32;;;;;;;56.05;49.97;;;;;;;;;;4956385;28;20026;-79
2022/02/07 11:43:31;;;;;;;59.50;50.22;;;;;;;;;;4957117;28;20106;-78
2022/02/07 11:45:56;;;;;;;;;;;;;;;;;;4907223;28;20079;-78
2022/02/07 11:48:33;;;;;;;56.13;49.97;;;;;;;;;;4972158;28;19918;-78
2022/02/07 11:51:04;;;;;;;56.45;50.03;;;;;;;;;;4958061;28;20019;-78
2022/02/07 11:53:43;;;;;;;60.97;50.85;;;;;;;;;;4956445;28;20030;-77
2022/02/07 11:56:21;;;;;;;57.05;49.97;;;;;;;;;;4973481;28;20094;-77
2022/02/07 11:59:17;;;;;;;58.13;51.30;;;;;;;;;;4955407;29;20043;-78
2022/02/07 12:01:45;;;;;;;55.75;49.72;;;;;;;;;;4948280;29;20055;-79
2022/02/07 12:04:10;;;;;;;56.72;49.83;;;;;;;;;;4957071;28;20102;-79
2022/02/07 12:06:36;;;;;;;56.67;50.57;;;;;;;;;;4957235;29;20050;-78
2022/02/07 12:09:03;;;;;;;55.33;49.30;;;;;;;;;;4954089;28;20049;-78
2022/02/07 12:11:42;;;;;;;61.15;50.95;;;;;;;;;;4960016;28;20047;-78
2022/02/07 12:14:27;;;;;;;58.20;51.97;;;;;;;;;;4975178;28;20026;-79
2022/02/07 12:16:52;;;;;;;58.08;51.22;;;;;;;;;;4973830;28;20034;-79
2022/02/07 12:19:18;;;;;;;56.67;50.53;;;;;;;;;;4957226;28;20035;-80
2022/02/07 12:21:51;;;;;;;54.87;49.40;;;;;;;;;;4981033;28;20394;-80
2022/02/07 12:24:17;;;;;;;57.10;51.10;;;;;;;;;;4959774;28;20033;-78
2022/02/07 12:26:45;;;;;;;66.22;53.17;;;;;;;;;;4962004;28;20118;-80
2022/02/07 12:29:26;;;;;;;55.58;49.72;;;;;;;;;;4960424;29;20078;-80
2022/02/07 12:31:52;;;;;;;56.03;50.20;;;;;;;;;;4973067;28;20051;-78
2022/02/07 12:34:23;;;;;;;58.67;50.20;;;;;;;;;;4961575;28;20113;-79
2022/02/07 12:36:52;;;;;;;57.25;51.42;;;;;;;;;;4959935;29;20122;-79
2022/02/07 12:39:17;;;;;;;54.72;49.08;;;;;;;;;;4959250;28;20027;-78
2022/02/07 12:41:43;;;;;;;56.40;50.40;;;;;;;;;;4961358;29;20027;-79
2022/02/07 12:44:10;;;;;;;54.75;48.95;;;;;;;;;;4961475;29;20035;-79
2022/02/07 12:46:39;;;;;;;56.08;50.05;;;;;;;;;;4960163;29;20096;-77
2022/02/07 12:49:10;;;;;;;58.90;52.08;;;;;;;;;;4965885;28;20012;-78
2022/02/07 12:51:42;;;;;;;57.67;50.67;;;;;;;;;;4968820;29;20035;-79
2022/02/07 12:54:07;;;;;;;55.28;49.42;;;;;;;;;;4968379;29;20091;-78
2022/02/07 12:56:34;;;;;;;60.50;50.93;;;;;;;;;;4968459;29;20174;-78
2022/02/07 12:59:01;;;;;;;;;;;;;;;;;;4967140;29;20042;-78
2022/02/07 13:01:28;;;;;;;56.97;49.47;;;;;;;;;;4983214;28;19937;-77
2022/02/07 13:04:01;;;;;;;58.97;50.92;;;;;;;;;;4977624;28;20500;-78
2022/02/07 13:06:34;;;;;;;68.22;52.40;;;;;;;;;;4977841;28;20026;-78
2022/02/07 13:09:03;;;;;;;61.40;51.75;;;;;;;;;;4962000;28;20030;-79
2022/02/07 13:11:33;;;;;;;55.00;49.58;;;;;;;;;;4968144;29;20016;-80
2022/02/07 13:13:59;;;;;;;54.60;48.67;;;;;;;;;;4961230;28;20170;-82
2022/02/07 13:16:25;;;;;;;55.30;49.45;;;;;;;;;;4960564;28;20023;-80
2022/02/07 13:18:51;;;;;;;52.47;47.55;;;;;;;;;;4957030;28;20485;-78
2022/02/07 13:21:18;;;;;;;51.77;47.07;;;;;;;;;;4978508;28;20051;-82
2022/02/07 13:23:47;;;;;;;52.83;47.70;;;;;;;;;;4989371;28;20023;-82
2022/02/07 13:26:14;;;;;;;53.03;47.92;;;;;;;;;;4993744;28;20011;-81
2022/02/07 13:28:40;;;;;;;52.85;47.63;;;;;;;;;;4988844;28;20035;-80
2022/02/07 13:31:06;;;;;;;52.42;47.67;;;;;;;;;;4976997;28;20026;-80
2022/02/07 13:33:44;;;;;;;53.92;48.35;;;;;;;;;;4989022;28;20027;-80
2022/02/07 13:36:09;;;;;;;54.90;49.05;;;;;;;;;;5033700;23;20057;-85
2022/02/07 13:38:34;;;;;;;52.43;47.70;;;;;;;;;;4980535;28;20023;-85
2022/02/07 13:41:02;;;;;;;53.90;48.63;;;;;;;;;;4988706;28;20046;-84
2022/02/07 13:43:29;;;;;;;54.40;48.33;;;;;;;;;;4988901;28;20122;-84
2022/02/07 13:45:59;;;;;;;60.78;48.95;;;;;;;;;;4987494;28;20026;-84
2022/02/07 13:48:26;;;;;;;54.80;49.00;;;;;;;;;;4982954;28;20049;-86
2022/02/07 13:50:53;;;;;;;54.53;48.67;;;;;;;;;;4979422;28;20019;-84
2022/02/07 13:53:19;;;;;;;57.88;49.08;;;;;;;;;;4965292;28;20535;-86
2022/02/07 13:55:46;;;;;;;55.47;49.40;;;;;;;;;;4966332;28;20062;-84
2022/02/07 13:58:16;;;;;;;56.30;49.08;;;;;;;;;;4979205;28;20026;-85
2022/02/07 14:00:41;;;;;;;54.83;49.22;;;;;;;;;;4986611;28;20019;-85
2022/02/07 14:03:16;;;;;;;56.33;49.65;;;;;;;;;;4987137;28;20027;-84
2022/02/07 14:05:43;;;;;;;59.78;50.50;;;;;;;;;;4982559;28;20328;-84
2022/02/07 14:08:10;;;;;;;57.80;49.20;;;;;;;;;;4981874;28;20011;-83
2022/02/07 14:10:38;;;;;;;56.10;49.45;;;;;;;;;;4983147;28;20475;-85
2022/02/07 14:13:04;;;;;;;59.15;49.50;;;;;;;;;;4983831;28;20022;-83
2022/02/07 14:15:30;;;;;;;58.90;49.70;;;;;;;;;;4983036;28;20114;-83
2022/02/07 14:17:55;;;;;;;57.73;50.27;;;;;;;;;;4984030;28;20023;-83
2022/02/07 14:20:29;;;;;;;55.70;49.58;;;;;;;;;;4982333;28;20026;-83
2022/02/07 14:22:54;;;;;;;55.40;49.50;;;;;;;;;;4983736;28;20101;-84
2022/02/07 14:25:19;;;;;;;65.50;50.17;;;;;;;;;;4983026;28;20026;-84
2022/02/07 14:27:46;;;;;;;63.20;50.10;;;;;;;;;;4980186;28;20018;-85
2022/02/07 14:30:11;;;;;;;55.83;49.78;;;;;;;;;;4982786;28;20529;-84
2022/02/07 14:32:37;;;;;;;55.90;49.90;;;;;;;;;;4984216;28;20015;-85
2022/02/07 14:35:02;;;;;;;55.03;49.33;;;;;;;;;;4989901;28;20014;-85
2022/02/07 14:37:27;;;;;;;53.73;48.13;;;;;;;;;;4993505;28;20038;-85
2022/02/07 14:39:52;;;;;;;60.00;49.67;;;;;;;;;;4990220;28;20011;-85
2022/02/07 14:42:17;;;;;;;61.28;51.10;;;;;;;;;;4997899;28;20090;-84
2022/02/07 14:44:57;;;;;;;55.40;49.63;;;;;;;;;;4998169;28;20111;-86
2022/02/07 14:47:38;;;;;;;57.80;49.45;;;;;;;;;;4984438;28;20015;-83
2022/02/07 14:50:04;;;;;;;62.13;50.58;;;;;;;;;;4969888;28;20023;-84
2022/02/07 14:52:29;;;;;;;53.53;48.15;;;;;;;;;;4999990;28;20042;-85
2022/02/07 14:54:54;;;;;;;55.03;49.50;;;;;;;;;;5018455;28;20045;-84
2022/02/07 14:57:19;;;;;;;56.17;49.40;;;;;;;;;;5005184;28;20506;-84
2022/02/07 14:59:46;;;;;;;54.42;48.58;;;;;;;;;;4987328;28;20011;-84
2022/02/07 15:02:12;;;;;;;53.75;48.40;;;;;;;;;;4994840;28;20046;-83
2022/02/07 15:04:38;;;;;;;54.50;49.03;;;;;;;;;;4982463;28;20022;-85
2022/02/07 15:07:03;;;;;;;55.15;49.13;;;;;;;;;;4980806;28;20034;-85
2022/02/07 15:09:28;;;;;;;54.60;49.07;;;;;;;;;;4986171;28;20061;-84
2022/02/07 15:11:56;;;;;;;60.20;50.40;;;;;;;;;;4996904;28;20027;-84
2022/02/07 15:14:21;;;;;;;53.78;48.13;;;;;;;;;;4998507;28;20011;-84
2022/02/07 15:16:47;;;;;;;54.75;49.08;;;;;;;;;;4988690;28;20022;-85
2022/02/07 15:19:12;;;;;;;53.00;47.77;;;;;;;;;;4977579;28;20059;-84
2022/02/07 15:21:37;;;;;;;52.40;47.57;;;;;;;;;;4965929;28;20023;-85
2022/02/07 15:24:02;;;;;;;53.83;48.33;;;;;;;;;;4966300;28;20023;-85
2022/02/07 15:26:28;;;;;;;55.40;49.50;;;;;;;;;;4966398;28;20051;-83
2022/02/07 15:28:54;;;;;;;53.20;47.87;;;;;;;;;;4981369;28;20019;-85
2022/02/07 15:31:23;;;;;;;;;;;;;;;;;;4982153;28;20517;-84
2022/02/07 15:33:49;;;;;;;52.63;47.58;;;;;;;;;;5003875;28;19916;-84
2022/02/07 15:36:15;;;;;;;54.88;49.50;;;;;;;;;;4984668;28;20030;-84
2022/02/07 15:38:41;;;;;;;53.20;47.97;;;;;;;;;;4986549;28;20023;-83
2022/02/07 15:41:06;;;;;;;54.70;48.75;;;;;;;;;;4979376;28;20031;-84
2022/02/07 15:43:31;;;;;;;54.33;48.70;;;;;;;;;;4980363;28;20023;-85
2022/02/07 15:45:57;;;;;;;54.23;48.03;;;;;;;;;;4978975;28;20031;-85
2022/02/07 15:48:24;;;;;;;52.70;47.53;;;;;;;;;;4973822;28;20022;-84
2022/02/07 15:50:50;;;;;;;53.90;48.28;;;;;;;;;;4983985;28;20031;-85
2022/02/07 15:53:16;;;;;;;53.63;48.38;;;;;;;;;;4982225;28;20023;-84
2022/02/07 15:55:41;;;;;;;53.92;48.55;;;;;;;;;;4981293;28;20026;-84
2022/02/07 15:58:07;;;;;;;53.87;48.17;;;;;;;;;;4978421;28;20044;-84
2022/02/07 16:00:32;;;;;;;53.30;47.57;;;;;;;;;;4978568;28;20107;-83
2022/02/07 16:02:57;;;;;;;53.23;47.60;;;;;;;;;;4961177;28;20066;-83
2022/02/07 16:05:23;;;;;;;54.03;48.23;;;;;;;;;;4966239;28;20026;-84
2022/02/07 16:07:49;;;;;;;52.75;47.38;;;;;;;;;;4988202;28;20038;-86
2022/02/07 16:10:14;;;;;;;56.07;50.07;;;;;;;;;;4981622;28;20025;-85
2022/02/07 16:12:43;;;;;;;58.30;48.73;;;;;;;;;;4999015;28;20019;-84
2022/02/07 16:15:08;;;;;;;54.38;48.50;;;;;;;;;;4981726;28;20043;-85
2022/02/07 16:17:33;;;;;;;55.30;49.17;;;;;;;;;;4976868;28;20494;-84
2022/02/07 16:19:59;;;;;;;63.50;48.27;;;;;;;;;;4992870;28;20031;-83